createdAt,value
2022-09-01T00:00:14.127Z,60.26
2022-09-01T00:03:27.172Z,60.83
2022-09-01T00:06:36.003Z,60.74
2022-09-01T00:09:39.059Z,61.60
2022-09-01T00:12:42.003Z,62.58
2022-09-01T00:16:04.496Z,62.53
2022-09-01T00:19:15.176Z,63.81
2022-09-01T00:23:15.118Z,63.22
2022-09-01T00:26:25.983Z,63.18
2022-09-01T00:29:32.239Z,63.92
2022-09-01T00:33:07.897Z,65.55
2022-09-01T00:36:11.163Z,65.83
2022-09-01T00:39:16.798Z,66.61
2022-09-01T00:42:22.483Z,66.87
2022-09-01T00:45:51.320Z,67.35
2022-09-01T00:49:15.032Z,67.45
2022-09-01T00:56:01.751Z,68.27
2022-09-01T01:03:32.794Z,68.98
2022-09-01T01:06:46.977Z,69.70
2022-09-01T01:10:04.928Z,69.66
2022-09-01T01:13:25.769Z,69.66
2022-09-01T01:16:29.865Z,69.90
2022-09-01T01:19:57.671Z,69.53
2022-09-01T01:23:28.268Z,70.09
2022-09-01T01:26:31.047Z,69.95
2022-09-01T01:29:40.047Z,69.47
2022-09-01T01:32:43.767Z,69.64
2022-09-01T01:35:47.071Z,69.55
2022-09-01T01:38:50.329Z,69.39
2022-09-01T01:41:54.696Z,69.36
2022-09-01T01:44:58.416Z,69.44
2022-09-01T01:48:08.669Z,69.97
2022-09-01T01:51:13.961Z,70.01
2022-09-01T01:54:19.797Z,70.08
2022-09-01T01:57:22.601Z,70.47
2022-09-01T02:00:30.447Z,69.77
2022-09-01T02:03:38.849Z,70.05
2022-09-01T02:06:45.846Z,70.04
2022-09-01T02:09:48.596Z,70.05
2022-09-01T02:12:51.467Z,70.56
2022-09-01T02:15:55.598Z,70.70
2022-09-01T02:18:58.288Z,69.98
2022-09-01T02:22:00.819Z,70.81
2022-09-01T02:25:08.065Z,69.39
2022-09-01T02:28:16.191Z,69.98
2022-09-01T02:31:21.112Z,70.32
2022-09-01T02:34:28.281Z,70.42
2022-09-01T02:37:30.867Z,71.03
2022-09-01T02:40:33.828Z,71.53
2022-09-01T02:43:36.989Z,70.79
2022-09-01T02:46:44.638Z,70.71
2022-09-01T02:49:47.375Z,70.76
2022-09-01T02:52:50.061Z,71.18
2022-09-01T02:55:52.378Z,70.74
2022-09-01T02:58:55.473Z,70.86
2022-09-01T03:01:58.051Z,71.31
2022-09-01T03:05:01.943Z,71.10
2022-09-01T03:08:10.404Z,70.75
2022-09-01T03:11:13.546Z,70.26
2022-09-01T03:14:17.113Z,70.13
2022-09-01T03:17:19.614Z,70.31
2022-09-01T03:20:21.968Z,70.40
2022-09-01T03:23:25.414Z,70.50
2022-09-01T03:26:27.846Z,70.26
2022-09-01T03:29:30.972Z,69.92
2022-09-01T03:32:38.054Z,69.58
2022-09-01T03:35:41.902Z,70.18
2022-09-01T03:38:44.407Z,70.42
2022-09-01T03:41:49.814Z,70.50
2022-09-01T03:44:56.726Z,70.59
2022-09-01T03:48:00.490Z,69.60
2022-09-01T03:51:03.197Z,69.64
2022-09-01T03:54:06.298Z,69.93
2022-09-01T03:57:10.199Z,70.06
2022-09-01T04:00:20.411Z,69.45
2022-09-01T04:03:29.062Z,70.00
2022-09-01T04:06:33.631Z,69.95
2022-09-01T04:09:37.242Z,69.64
2022-09-01T04:12:39.746Z,69.46
2022-09-01T04:15:42.243Z,69.85
2022-09-01T04:18:49.020Z,69.98
2022-09-01T04:21:55.121Z,70.52
2022-09-01T04:24:59.219Z,69.92
2022-09-01T04:28:03.721Z,70.42
2022-09-01T04:31:09.339Z,70.55
2022-09-01T04:34:13.830Z,70.48
2022-09-01T04:37:21.472Z,70.93
2022-09-01T04:40:27.547Z,71.41
2022-09-01T04:43:30.143Z,72.07
2022-09-01T04:46:36.222Z,72.31
2022-09-01T04:49:38.904Z,72.04
2022-09-01T04:52:45.089Z,72.17
2022-09-01T04:55:54.074Z,72.62
2022-09-01T04:58:57.003Z,72.54
2022-09-01T05:02:01.574Z,72.92
2022-09-01T05:05:04.532Z,72.58
2022-09-01T05:08:11.288Z,72.62
2022-09-01T05:11:17.775Z,73.11
2022-09-01T05:14:21.528Z,73.11
2022-09-01T05:17:29.123Z,72.97
2022-09-01T05:20:32.114Z,73.49
2022-09-01T05:23:36.481Z,73.59
2022-09-01T05:26:40.984Z,73.64
2022-09-01T05:29:45.851Z,74.08
2022-09-01T05:32:49.160Z,73.60
2022-09-01T05:35:56.241Z,73.77
2022-09-01T05:38:59.087Z,73.95
2022-09-01T05:42:02.073Z,73.52
2022-09-01T05:45:04.869Z,74.38
2022-09-01T05:48:09.440Z,73.67
2022-09-01T05:51:42.867Z,74.36
2022-09-01T05:54:41.432Z,74.61
2022-09-01T05:57:47.474Z,74.56
2022-09-01T06:00:55.820Z,74.43
2022-09-01T06:04:03.805Z,74.80
2022-09-01T06:07:09.021Z,74.47
2022-09-01T06:10:14.712Z,73.41
2022-09-01T06:13:19.442Z,74.68
2022-09-01T06:16:24.399Z,74.97
2022-09-01T06:19:30.054Z,74.78
2022-09-01T06:22:35.071Z,74.33
2022-09-01T06:25:39.546Z,74.39
2022-09-01T06:28:42.431Z,73.90
2022-09-01T06:31:52.053Z,72.63
2022-09-01T06:34:58.026Z,73.15
2022-09-01T06:38:03.066Z,72.89
2022-09-01T06:41:13.252Z,72.40
2022-09-01T06:44:16.087Z,72.55
2022-09-01T06:47:19.461Z,72.51
2022-09-01T06:53:53.144Z,72.91
2022-09-01T06:56:55.610Z,71.67
2022-09-01T06:59:59.468Z,72.31
2022-09-01T07:03:09.434Z,71.62
2022-09-01T07:06:59.008Z,72.13
2022-09-01T07:09:47.702Z,71.22
2022-09-01T07:13:09.011Z,70.52
2022-09-01T07:19:49.987Z,70.42
2022-09-01T07:23:09.240Z,70.19
2022-09-01T07:26:24.694Z,69.28
2022-09-01T07:29:29.782Z,69.56
2022-09-01T07:32:49.234Z,69.06
2022-09-01T07:46:40.990Z,67.81
2022-09-01T07:53:06.545Z,67.25
2022-09-01T07:56:11.285Z,66.53
2022-09-01T07:59:15.520Z,65.99
2022-09-01T08:02:22.040Z,65.90
2022-09-01T08:05:27.180Z,65.83
2022-09-01T08:08:29.755Z,65.25
2022-09-01T08:12:00.564Z,65.32
2022-09-01T08:18:19.196Z,64.24
2022-09-01T08:21:23.548Z,64.78
2022-09-01T08:24:29.171Z,64.67
2022-09-01T08:27:33.313Z,64.12
2022-09-01T08:30:38.107Z,63.84
2022-09-01T08:33:41.918Z,63.51
2022-09-01T08:36:44.730Z,63.54
2022-09-01T08:39:48.554Z,63.30
2022-09-01T08:43:05.096Z,63.10
2022-09-01T08:46:19.924Z,62.23
2022-09-01T08:49:26.757Z,61.63
2022-09-01T08:52:37.256Z,61.24
2022-09-01T08:55:47.953Z,60.64
2022-09-01T08:58:50.395Z,60.05
2022-09-01T09:02:23.220Z,58.38
2022-09-01T09:05:50.841Z,57.41
2022-09-01T09:09:01.282Z,57.32
2022-09-01T09:12:48.890Z,56.62
2022-09-01T09:16:13.473Z,55.57
2022-09-01T09:19:33.729Z,55.53
2022-09-01T09:22:36.455Z,55.15
2022-09-01T09:25:38.814Z,55.22
2022-09-01T09:28:43.107Z,55.40
2022-09-01T09:31:52.125Z,56.18
2022-09-01T09:34:54.767Z,56.22
2022-09-01T09:38:19.813Z,56.48
2022-09-01T09:41:27.152Z,56.20
2022-09-01T09:44:32.956Z,56.32
2022-09-01T09:47:44.494Z,56.33
2022-09-01T09:50:47.215Z,55.77
2022-09-01T09:53:51.024Z,55.45
2022-09-01T09:57:08.639Z,54.82
2022-09-01T10:00:34.583Z,54.53
2022-09-01T10:03:52.701Z,53.02
2022-09-01T10:06:55.611Z,53.00
2022-09-01T10:10:02.015Z,52.07
2022-09-01T10:13:05.376Z,51.67
2022-09-01T10:16:22.547Z,51.02
2022-09-01T10:19:35.557Z,49.85
2022-09-01T10:22:40.358Z,49.91
2022-09-01T10:25:44.520Z,48.94
2022-09-01T10:29:00.693Z,48.73
2022-09-01T10:32:31.297Z,48.33
2022-09-01T10:35:39.754Z,46.48
2022-09-01T10:38:46.362Z,45.49
2022-09-01T10:42:00.667Z,45.26
2022-09-01T10:45:03.425Z,44.30
2022-09-01T10:48:46.348Z,43.38
2022-09-01T10:51:56.476Z,41.92
2022-09-01T10:55:03.095Z,41.78
2022-09-01T11:01:53.539Z,39.92
2022-09-01T11:04:55.952Z,38.68
2022-09-01T11:08:01.241Z,37.50
2022-09-01T11:11:21.336Z,36.59
2022-09-01T11:14:28.844Z,34.41
2022-09-01T11:17:39.748Z,35.60
2022-09-01T11:20:45.508Z,33.66
2022-09-01T11:23:48.157Z,34.39
2022-09-01T11:26:51.112Z,33.74
2022-09-01T11:29:57.155Z,33.50
2022-09-01T11:33:21.058Z,32.32
2022-09-01T11:36:55.915Z,32.23
2022-09-01T11:40:02.362Z,32.82
2022-09-01T11:43:12.518Z,33.08
2022-09-01T11:46:34.900Z,32.91
2022-09-01T11:49:46.144Z,32.49
2022-09-01T11:53:04.061Z,31.84
2022-09-01T11:56:17.166Z,31.34
2022-09-01T11:59:37.272Z,30.36
2022-09-01T12:02:46.633Z,30.42
2022-09-01T12:05:59.254Z,30.20
2022-09-01T12:09:05.043Z,30.82
2022-09-01T12:12:25.327Z,30.37
2022-09-01T12:15:28.931Z,30.48
2022-09-01T12:18:35.567Z,30.31
2022-09-01T12:21:42.846Z,29.79
2022-09-01T12:24:49.592Z,29.28
2022-09-01T12:27:52.321Z,28.76
2022-09-01T12:30:55.466Z,28.64
2022-09-01T12:33:57.767Z,27.54
2022-09-01T12:37:04.967Z,27.52
2022-09-01T12:40:25.551Z,27.59
2022-09-01T12:43:39.130Z,27.08
2022-09-01T12:46:44.229Z,27.20
2022-09-01T12:49:50.506Z,26.92
2022-09-01T12:52:56.023Z,26.85
2022-09-01T12:56:05.573Z,27.50
2022-09-01T12:59:26.215Z,26.93
2022-09-01T13:02:46.554Z,26.52
2022-09-01T13:05:53.530Z,25.78
2022-09-01T13:08:56.761Z,25.77
2022-09-01T13:12:20.907Z,25.86
2022-09-01T13:15:25.648Z,26.61
2022-09-01T13:18:29.001Z,27.04
2022-09-01T13:21:32.791Z,27.00
2022-09-01T13:24:35.059Z,26.90
2022-09-01T13:27:37.870Z,27.05
2022-09-01T13:30:41.299Z,27.10
2022-09-01T13:37:06.320Z,26.91
2022-09-01T13:40:15.541Z,27.55
2022-09-01T13:43:26.752Z,27.49
2022-09-01T13:46:29.309Z,27.24
2022-09-01T13:52:56.775Z,27.15
2022-09-01T13:55:59.135Z,27.51
2022-09-01T13:59:01.653Z,27.27
2022-09-01T14:02:05.538Z,27.50
2022-09-01T14:05:09.290Z,27.79
2022-09-01T14:08:14.569Z,28.17
2022-09-01T14:11:20.118Z,28.43
2022-09-01T14:14:23.208Z,28.60
2022-09-01T14:17:26.478Z,28.76
2022-09-01T14:20:36.840Z,28.45
2022-09-01T14:23:39.785Z,28.61
2022-09-01T14:26:42.313Z,28.81
2022-09-01T14:29:55.041Z,29.53
2022-09-01T14:33:00.568Z,30.06
2022-09-01T14:36:03.755Z,30.10
2022-09-01T14:39:06.341Z,30.13
2022-09-01T14:42:10.099Z,30.57
2022-09-01T14:45:15.832Z,30.20
2022-09-01T14:48:20.608Z,29.64
2022-09-01T14:54:52.695Z,29.80
2022-09-01T14:57:55.896Z,29.74
2022-09-01T15:01:11.987Z,29.98
2022-09-01T15:04:23.040Z,30.00
2022-09-01T15:07:25.671Z,29.77
2022-09-01T15:10:28.646Z,30.03
2022-09-01T15:13:31.216Z,30.06
2022-09-01T15:16:39.636Z,30.08
2022-09-01T15:19:42.290Z,30.15
2022-09-01T15:22:44.545Z,29.99
2022-09-01T15:25:51.984Z,30.47
2022-09-01T15:28:54.608Z,30.19
2022-09-01T15:31:57.245Z,30.71
2022-09-01T15:35:01.894Z,30.60
2022-09-01T15:38:17.053Z,30.70
2022-09-01T15:41:23.461Z,30.59
2022-09-01T15:44:26.410Z,30.26
2022-09-01T15:47:30.293Z,30.69
2022-09-01T15:50:32.884Z,30.23
2022-09-01T15:53:38.213Z,29.89
2022-09-01T15:56:43.424Z,30.33
2022-09-01T15:59:48.028Z,30.16
2022-09-01T16:02:53.227Z,29.97
2022-09-01T16:05:55.984Z,30.64
2022-09-01T16:09:01.300Z,30.61
2022-09-01T16:12:08.239Z,30.80
2022-09-01T16:15:13.491Z,30.98
2022-09-01T16:18:28.179Z,31.25
2022-09-01T16:21:54.214Z,31.47
2022-09-01T16:25:02.164Z,31.53
2022-09-01T16:28:21.067Z,31.83
2022-09-01T16:31:30.509Z,32.23
2022-09-01T16:34:33.729Z,32.32
2022-09-01T16:37:54.891Z,32.62
2022-09-01T16:41:10.049Z,33.13
2022-09-01T16:44:40.258Z,32.94
2022-09-01T16:48:04.141Z,33.37
2022-09-01T16:51:27.167Z,33.60
2022-09-01T16:54:35.425Z,34.17
2022-09-01T16:57:44.040Z,34.59
2022-09-01T17:01:17.331Z,34.53
2022-09-01T17:04:35.580Z,34.64
2022-09-01T17:07:49.414Z,34.61
2022-09-01T17:11:10.389Z,34.71
2022-09-01T17:14:22.565Z,35.02
2022-09-01T17:17:33.288Z,35.31
2022-09-01T17:20:41.622Z,35.80
2022-09-01T17:24:31.961Z,35.43
2022-09-01T17:28:03.649Z,36.01
2022-09-01T17:31:13.225Z,36.09
2022-09-01T17:34:24.039Z,36.48
2022-09-01T17:37:43.356Z,36.73
2022-09-01T17:41:06.941Z,37.23
2022-09-01T17:44:21.503Z,37.50
2022-09-01T17:47:27.086Z,37.22
2022-09-01T17:51:04.306Z,37.20
2022-09-01T17:54:06.494Z,37.53
2022-09-01T17:57:26.239Z,37.69
2022-09-01T18:00:55.678Z,38.00
2022-09-01T18:04:17.688Z,38.33
2022-09-01T18:07:45.234Z,38.69
2022-09-01T18:10:55.780Z,38.71
2022-09-01T18:14:14.415Z,39.03
2022-09-01T18:17:28.493Z,39.25
2022-09-01T18:21:00.118Z,39.25
2022-09-01T18:24:15.549Z,39.62
2022-09-01T18:27:17.867Z,39.89
2022-09-01T18:30:49.570Z,40.22
2022-09-01T18:34:14.665Z,40.40
2022-09-01T18:37:20.119Z,40.92
2022-09-01T18:40:47.223Z,40.88
2022-09-01T18:44:02.867Z,40.98
2022-09-01T18:47:10.648Z,41.47
2022-09-01T18:50:36.023Z,41.68
2022-09-01T18:54:14.239Z,41.76
2022-09-01T18:57:21.222Z,42.22
2022-09-01T19:00:45.344Z,42.22
2022-09-01T19:04:09.944Z,42.33
2022-09-01T19:07:26.185Z,42.58
2022-09-01T19:10:56.702Z,42.82
2022-09-01T19:14:18.325Z,43.26
2022-09-01T19:17:53.072Z,43.73
2022-09-01T19:21:04.276Z,44.13
2022-09-01T19:24:23.705Z,44.38
2022-09-01T19:27:32.231Z,44.80
2022-09-01T19:30:42.236Z,45.29
2022-09-01T19:33:49.466Z,45.63
2022-09-01T19:36:59.181Z,46.05
2022-09-01T19:40:02.265Z,46.52
2022-09-01T19:43:13.533Z,47.10
2022-09-01T19:46:24.873Z,47.65
2022-09-01T19:49:41.453Z,48.13
2022-09-01T19:53:02.666Z,49.01
2022-09-01T19:56:07.672Z,49.65
2022-09-01T19:59:20.083Z,50.21
2022-09-01T20:02:31.488Z,50.54
2022-09-01T20:06:00.507Z,51.13
2022-09-01T20:09:31.294Z,51.68
2022-09-01T20:12:47.962Z,51.85
2022-09-01T20:16:00.530Z,52.33
2022-09-01T20:19:10.600Z,52.86
2022-09-01T20:22:19.637Z,52.75
2022-09-01T20:25:27.355Z,52.85
2022-09-01T20:28:46.786Z,52.48
2022-09-01T20:31:52.803Z,52.34
2022-09-01T20:35:02.962Z,52.02
2022-09-01T20:38:43.115Z,52.04
2022-09-01T20:41:53.125Z,51.87
2022-09-01T20:44:59.589Z,51.97
2022-09-01T20:48:27.012Z,52.11
2022-09-01T20:51:44.544Z,52.20
2022-09-01T20:54:54.677Z,52.22
2022-09-01T20:58:26.789Z,52.25
2022-09-01T21:01:51.298Z,52.59
2022-09-01T21:05:15.823Z,52.47
2022-09-01T21:08:37.044Z,52.58
2022-09-01T21:11:43.049Z,52.47
2022-09-01T21:14:51.123Z,52.46
2022-09-01T21:18:18.623Z,52.51
2022-09-01T21:21:46.711Z,52.71
2022-09-01T21:24:49.767Z,52.84
2022-09-01T21:27:57.013Z,52.85
2022-09-01T21:31:00.090Z,52.84
2022-09-01T21:34:02.410Z,52.65
2022-09-01T21:37:05.015Z,52.73
2022-09-01T21:40:08.269Z,52.45
2022-09-01T21:43:22.043Z,52.26
2022-09-01T21:46:26.027Z,51.84
2022-09-01T21:49:28.552Z,51.74
2022-09-01T21:52:34.561Z,51.59
2022-09-01T21:55:37.707Z,51.43
2022-09-01T21:58:39.980Z,51.29
2022-09-01T22:01:43.522Z,51.16
2022-09-01T22:04:46.740Z,50.81
2022-09-01T22:07:50.785Z,50.59
2022-09-01T22:10:55.239Z,50.34
2022-09-01T22:13:59.356Z,50.03
2022-09-01T22:17:04.255Z,49.82
2022-09-01T22:20:09.704Z,49.22
2022-09-01T22:23:13.524Z,48.87
2022-09-01T22:26:24.415Z,48.18
2022-09-01T22:29:26.983Z,48.15
2022-09-01T22:32:33.071Z,47.74
2022-09-01T22:35:43.855Z,47.12
2022-09-01T22:38:46.172Z,46.53
2022-09-01T22:41:48.748Z,46.31
2022-09-01T22:44:51.424Z,46.11
2022-09-01T22:47:53.999Z,45.92
2022-09-01T22:50:56.274Z,45.85
2022-09-01T22:53:59.016Z,46.00
2022-09-01T22:57:02.595Z,45.72
2022-09-01T23:00:09.225Z,45.85
2022-09-01T23:03:11.633Z,46.00
2022-09-01T23:06:27.828Z,45.87
2022-09-01T23:09:30.668Z,45.91
2022-09-01T23:12:33.146Z,46.04
2022-09-01T23:15:35.613Z,45.87
2022-09-01T23:18:40.630Z,45.98
2022-09-01T23:21:43.060Z,45.86
2022-09-01T23:24:45.721Z,45.97
2022-09-01T23:27:48.031Z,46.11
2022-09-01T23:30:51.191Z,46.27
2022-09-01T23:33:53.832Z,46.51
2022-09-01T23:36:56.399Z,46.59
2022-09-01T23:39:58.637Z,46.69
2022-09-01T23:43:01.920Z,46.62
2022-09-01T23:46:05.572Z,46.70
2022-09-01T23:49:09.152Z,46.47
2022-09-01T23:52:11.416Z,46.34
2022-09-01T23:55:13.987Z,46.09
2022-09-01T23:58:17.409Z,45.83
